sensor_id;sensor_type;location;lat;lon;timestamp;pressure;altitude;pressure_sealevel;temperature;humidity
47913;BME280;33676;51.006;17.180;2023-07-28T00:01:31;99255.42;;;17.19;82.35
47913;BME280;33676;51.006;17.180;2023-07-28T00:04:00;99256.63;;;17.16;82.45
47913;BME280;33676;51.006;17.180;2023-07-28T00:06:28;99257.80;;;17.14;82.48
47913;BME280;33676;51.006;17.180;2023-07-28T00:08:57;99257.23;;;17.13;82.61
47913;BME280;33676;51.006;17.180;2023-07-28T00:11:25;99258.25;;;17.10;82.52
47913;BME280;33676;51.006;17.180;2023-07-28T00:13:53;99252.10;;;17.07;82.73
47913;BME280;33676;51.006;17.180;2023-07-28T00:16:22;99249.32;;;17.07;82.98
47913;BME280;33676;51.006;17.180;2023-07-28T00:18:50;99242.95;;;17.06;82.95
47913;BME280;33676;51.006;17.180;2023-07-28T00:21:19;99243.92;;;17.05;83.09
47913;BME280;33676;51.006;17.180;2023-07-28T00:23:47;99243.42;;;17.05;83.22
47913;BME280;33676;51.006;17.180;2023-07-28T00:26:15;99240.46;;;17.03;83.30
47913;BME280;33676;51.006;17.180;2023-07-28T00:28:44;99234.10;;;17.02;83.49
47913;BME280;33676;51.006;17.180;2023-07-28T00:31:13;99233.68;;;17.01;83.48
47913;BME280;33676;51.006;17.180;2023-07-28T00:33:41;99230.05;;;17.01;83.63
47913;BME280;33676;51.006;17.180;2023-07-28T00:36:10;99229.30;;;17.02;83.69
47913;BME280;33676;51.006;17.180;2023-07-28T00:38:39;99224.64;;;17.01;83.70
47913;BME280;33676;51.006;17.180;2023-07-28T00:41:07;99224.67;;;17.01;83.77
47913;BME280;33676;51.006;17.180;2023-07-28T00:43:35;99222.27;;;17.00;83.92
47913;BME280;33676;51.006;17.180;2023-07-28T00:46:04;99221.33;;;17.01;83.99
47913;BME280;33676;51.006;17.180;2023-07-28T00:48:32;99221.63;;;17.01;84.02
47913;BME280;33676;51.006;17.180;2023-07-28T00:51:01;99225.77;;;17.01;84.10
47913;BME280;33676;51.006;17.180;2023-07-28T00:53:30;99221.95;;;17.00;84.19
47913;BME280;33676;51.006;17.180;2023-07-28T00:55:59;99222.48;;;17.01;84.45
47913;BME280;33676;51.006;17.180;2023-07-28T00:58:28;99223.91;;;17.01;84.50
47913;BME280;33676;51.006;17.180;2023-07-28T01:00:56;99223.38;;;17.01;84.63
47913;BME280;33676;51.006;17.180;2023-07-28T01:03:25;99224.71;;;17.00;84.68
47913;BME280;33676;51.006;17.180;2023-07-28T01:09:33;99222.34;;;16.97;84.81
47913;BME280;33676;51.006;17.180;2023-07-28T01:11:55;99213.41;;;16.96;84.90
47913;BME280;33676;51.006;17.180;2023-07-28T01:14:24;99208.45;;;16.96;85.08
47913;BME280;33676;51.006;17.180;2023-07-28T01:16:53;99207.55;;;16.97;85.20
47913;BME280;33676;51.006;17.180;2023-07-28T01:19:22;99203.39;;;16.96;85.24
47913;BME280;33676;51.006;17.180;2023-07-28T01:22:22;99197.23;;;16.96;85.35
47913;BME280;33676;51.006;17.180;2023-07-28T01:27:39;99196.95;;;17.02;87.54
47913;BME280;33676;51.006;17.180;2023-07-28T01:30:11;99187.79;;;17.15;88.52
47913;BME280;33676;51.006;17.180;2023-07-28T01:32:39;99186.47;;;17.31;88.95
47913;BME280;33676;51.006;17.180;2023-07-28T01:35:08;99185.42;;;17.33;87.74
47913;BME280;33676;51.006;17.180;2023-07-28T01:37:36;99187.68;;;17.30;87.14
47913;BME280;33676;51.006;17.180;2023-07-28T01:40:06;99187.92;;;17.27;86.75
47913;BME280;33676;51.006;17.180;2023-07-28T01:42:34;99180.89;;;17.24;86.50
47913;BME280;33676;51.006;17.180;2023-07-28T01:45:03;99179.21;;;17.20;86.48
47913;BME280;33676;51.006;17.180;2023-07-28T01:47:32;99176.78;;;17.17;86.43
47913;BME280;33676;51.006;17.180;2023-07-28T01:50:01;99178.05;;;17.15;86.45
47913;BME280;33676;51.006;17.180;2023-07-28T01:52:29;99177.58;;;17.12;86.55
47913;BME280;33676;51.006;17.180;2023-07-28T01:54:58;99172.67;;;17.10;86.62
47913;BME280;33676;51.006;17.180;2023-07-28T01:57:27;99170.60;;;17.11;86.68
47913;BME280;33676;51.006;17.180;2023-07-28T01:59:56;99172.05;;;17.13;86.79
47913;BME280;33676;51.006;17.180;2023-07-28T02:02:24;99165.70;;;17.15;86.89
47913;BME280;33676;51.006;17.180;2023-07-28T02:04:53;99160.86;;;17.17;86.92
47913;BME280;33676;51.006;17.180;2023-07-28T02:07:21;99156.39;;;17.18;87.03
47913;BME280;33676;51.006;17.180;2023-07-28T02:09:49;99152.03;;;17.19;87.05
47913;BME280;33676;51.006;17.180;2023-07-28T02:12:18;99146.95;;;17.21;87.05
47913;BME280;33676;51.006;17.180;2023-07-28T02:14:46;99152.02;;;17.23;87.29
47913;BME280;33676;51.006;17.180;2023-07-28T02:17:14;99154.80;;;17.23;87.37
47913;BME280;33676;51.006;17.180;2023-07-28T02:19:43;99158.54;;;17.23;87.36
47913;BME280;33676;51.006;17.180;2023-07-28T02:22:11;99159.27;;;17.23;87.43
47913;BME280;33676;51.006;17.180;2023-07-28T02:24:40;99158.05;;;17.22;87.54
47913;BME280;33676;51.006;17.180;2023-07-28T02:27:08;99155.33;;;17.23;87.63
47913;BME280;33676;51.006;17.180;2023-07-28T02:29:37;99154.07;;;17.24;87.80
47913;BME280;33676;51.006;17.180;2023-07-28T02:32:06;99151.23;;;17.26;87.88
47913;BME280;33676;51.006;17.180;2023-07-28T02:34:34;99148.02;;;17.29;88.09
47913;BME280;33676;51.006;17.180;2023-07-28T02:37:03;99148.38;;;17.34;88.18
47913;BME280;33676;51.006;17.180;2023-07-28T02:39:31;99144.85;;;17.36;88.26
47913;BME280;33676;51.006;17.180;2023-07-28T02:42:00;99146.69;;;17.40;88.42
47913;BME280;33676;51.006;17.180;2023-07-28T02:44:28;99146.30;;;17.43;88.52
47913;BME280;33676;51.006;17.180;2023-07-28T02:46:57;99144.33;;;17.45;88.61
47913;BME280;33676;51.006;17.180;2023-07-28T02:49:25;99143.44;;;17.48;88.70
47913;BME280;33676;51.006;17.180;2023-07-28T02:51:53;99148.85;;;17.51;88.69
47913;BME280;33676;51.006;17.180;2023-07-28T02:54:22;99153.78;;;17.54;88.88
47913;BME280;33676;51.006;17.180;2023-07-28T02:56:52;99153.02;;;17.57;88.99
47913;BME280;33676;51.006;17.180;2023-07-28T02:59:21;99155.38;;;17.60;89.12
47913;BME280;33676;51.006;17.180;2023-07-28T03:01:50;99156.02;;;17.63;89.28
47913;BME280;33676;51.006;17.180;2023-07-28T03:04:20;99154.77;;;17.66;89.24
47913;BME280;33676;51.006;17.180;2023-07-28T03:06:48;99159.41;;;17.68;89.37
47913;BME280;33676;51.006;17.180;2023-07-28T03:09:17;99156.77;;;17.70;89.34
47913;BME280;33676;51.006;17.180;2023-07-28T03:11:45;99159.38;;;17.70;89.27
47913;BME280;33676;51.006;17.180;2023-07-28T03:14:13;99153.33;;;17.69;89.44
47913;BME280;33676;51.006;17.180;2023-07-28T03:16:42;99151.17;;;17.69;89.39
47913;BME280;33676;51.006;17.180;2023-07-28T03:19:10;99150.23;;;17.68;89.28
47913;BME280;33676;51.006;17.180;2023-07-28T03:21:39;99154.80;;;17.68;89.47
47913;BME280;33676;51.006;17.180;2023-07-28T03:24:07;99160.68;;;17.69;89.54
47913;BME280;33676;51.006;17.180;2023-07-28T03:26:36;99163.73;;;17.69;89.60
47913;BME280;33676;51.006;17.180;2023-07-28T03:29:04;99159.41;;;17.70;89.65
47913;BME280;33676;51.006;17.180;2023-07-28T03:31:33;99161.61;;;17.70;89.68
47913;BME280;33676;51.006;17.180;2023-07-28T03:34:04;99162.77;;;17.71;89.69
47913;BME280;33676;51.006;17.180;2023-07-28T03:36:32;99162.95;;;17.72;89.78
47913;BME280;33676;51.006;17.180;2023-07-28T03:39:01;99164.38;;;17.74;91.45
47913;BME280;33676;51.006;17.180;2023-07-28T03:41:30;99167.56;;;17.79;91.93
47913;BME280;33676;51.006;17.180;2023-07-28T03:43:58;99168.80;;;17.92;92.87
47913;BME280;33676;51.006;17.180;2023-07-28T03:46:27;99165.65;;;18.03;92.82
47913;BME280;33676;51.006;17.180;2023-07-28T03:48:58;99165.02;;;18.04;91.75
47913;BME280;33676;51.006;17.180;2023-07-28T03:51:28;99159.24;;;18.02;91.30
47913;BME280;33676;51.006;17.180;2023-07-28T03:53:56;99160.66;;;18.00;91.00
47913;BME280;33676;51.006;17.180;2023-07-28T03:56:25;99159.80;;;17.99;90.87
47913;BME280;33676;51.006;17.180;2023-07-28T03:58:53;99160.65;;;17.99;90.74
47913;BME280;33676;51.006;17.180;2023-07-28T04:01:22;99159.35;;;18.00;90.75
47913;BME280;33676;51.006;17.180;2023-07-28T04:03:51;99160.55;;;18.01;90.81
47913;BME280;33676;51.006;17.180;2023-07-28T04:09:16;99146.83;;;18.06;90.91
47913;BME280;33676;51.006;17.180;2023-07-28T04:11:45;99144.67;;;18.08;90.79
47913;BME280;33676;51.006;17.180;2023-07-28T04:14:14;99143.09;;;18.09;90.73
47913;BME280;33676;51.006;17.180;2023-07-28T04:16:42;99131.67;;;18.11;90.75
47913;BME280;33676;51.006;17.180;2023-07-28T04:19:11;99131.32;;;18.12;90.84
47913;BME280;33676;51.006;17.180;2023-07-28T04:21:39;99130.06;;;18.14;90.89
47913;BME280;33676;51.006;17.180;2023-07-28T04:24:09;99130.32;;;18.16;91.00
47913;BME280;33676;51.006;17.180;2023-07-28T04:26:38;99126.19;;;18.19;91.22
47913;BME280;33676;51.006;17.180;2023-07-28T04:29:06;99125.02;;;18.20;91.01
47913;BME280;33676;51.006;17.180;2023-07-28T04:31:35;99121.25;;;18.22;91.09
47913;BME280;33676;51.006;17.180;2023-07-28T04:34:03;99119.02;;;18.23;91.06
47913;BME280;33676;51.006;17.180;2023-07-28T04:36:32;99120.31;;;18.22;91.02
47913;BME280;33676;51.006;17.180;2023-07-28T04:39:01;99118.69;;;18.23;90.99
47913;BME280;33676;51.006;17.180;2023-07-28T04:41:29;99110.52;;;18.23;91.15
47913;BME280;33676;51.006;17.180;2023-07-28T04:43:58;99109.84;;;18.25;91.24
47913;BME280;33676;51.006;17.180;2023-07-28T04:46:26;99111.34;;;18.29;91.25
47913;BME280;33676;51.006;17.180;2023-07-28T04:48:55;99113.23;;;18.32;91.43
47913;BME280;33676;51.006;17.180;2023-07-28T04:51:24;99114.21;;;18.35;91.38
47913;BME280;33676;51.006;17.180;2023-07-28T04:53:52;99114.56;;;18.38;91.52
47913;BME280;33676;51.006;17.180;2023-07-28T04:56:21;99110.84;;;18.39;91.44
47913;BME280;33676;51.006;17.180;2023-07-28T04:58:49;99113.27;;;18.41;91.51
47913;BME280;33676;51.006;17.180;2023-07-28T05:01:17;99118.95;;;18.42;91.61
47913;BME280;33676;51.006;17.180;2023-07-28T05:03:46;99119.59;;;18.43;91.65
47913;BME280;33676;51.006;17.180;2023-07-28T05:06:14;99117.10;;;18.43;91.64
47913;BME280;33676;51.006;17.180;2023-07-28T05:08:43;99122.76;;;18.45;91.76
47913;BME280;33676;51.006;17.180;2023-07-28T05:11:11;99120.35;;;18.46;91.87
47913;BME280;33676;51.006;17.180;2023-07-28T05:13:40;99117.41;;;18.47;91.79
47913;BME280;33676;51.006;17.180;2023-07-28T05:16:08;99121.71;;;18.50;91.84
47913;BME280;33676;51.006;17.180;2023-07-28T05:18:36;99124.79;;;18.53;91.96
47913;BME280;33676;51.006;17.180;2023-07-28T05:21:05;99126.01;;;18.52;91.73
47913;BME280;33676;51.006;17.180;2023-07-28T05:23:34;99135.73;;;18.53;91.82
47913;BME280;33676;51.006;17.180;2023-07-28T05:26:02;99136.38;;;18.57;92.10
47913;BME280;33676;51.006;17.180;2023-07-28T05:28:34;99141.34;;;18.61;92.19
47913;BME280;33676;51.006;17.180;2023-07-28T05:31:05;99142.42;;;18.64;92.33
47913;BME280;33676;51.006;17.180;2023-07-28T05:33:34;99141.46;;;18.66;92.38
47913;BME280;33676;51.006;17.180;2023-07-28T05:36:03;99142.44;;;18.66;92.34
47913;BME280;33676;51.006;17.180;2023-07-28T05:38:33;99139.73;;;18.66;92.38
47913;BME280;33676;51.006;17.180;2023-07-28T05:41:04;99141.67;;;18.70;92.45
47913;BME280;33676;51.006;17.180;2023-07-28T05:43:33;99138.73;;;18.70;92.49
47913;BME280;33676;51.006;17.180;2023-07-28T05:46:01;99137.82;;;18.73;92.69
47913;BME280;33676;51.006;17.180;2023-07-28T05:48:30;99138.11;;;18.77;93.05
47913;BME280;33676;51.006;17.180;2023-07-28T05:50:58;99132.03;;;18.80;93.16
47913;BME280;33676;51.006;17.180;2023-07-28T05:53:27;99128.52;;;18.82;93.00
47913;BME280;33676;51.006;17.180;2023-07-28T05:55:55;99128.45;;;18.81;92.90
47913;BME280;33676;51.006;17.180;2023-07-28T05:58:24;99129.84;;;18.80;92.94
47913;BME280;33676;51.006;17.180;2023-07-28T06:00:52;99131.83;;;18.81;93.68
47913;BME280;33676;51.006;17.180;2023-07-28T06:03:21;99133.19;;;18.82;94.94
47913;BME280;33676;51.006;17.180;2023-07-28T06:05:50;99134.66;;;18.85;95.26
47913;BME280;33676;51.006;17.180;2023-07-28T06:08:20;99133.91;;;18.89;95.50
47913;BME280;33676;51.006;17.180;2023-07-28T06:13:57;99127.63;;;18.95;94.53
47913;BME280;33676;51.006;17.180;2023-07-28T06:16:26;99129.03;;;19.02;94.46
47913;BME280;33676;51.006;17.180;2023-07-28T06:18:54;99130.36;;;19.12;94.60
47913;BME280;33676;51.006;17.180;2023-07-28T06:21:23;99132.44;;;19.22;94.66
47913;BME280;33676;51.006;17.180;2023-07-28T06:23:51;99128.92;;;19.33;94.88
47913;BME280;33676;51.006;17.180;2023-07-28T06:26:20;99138.10;;;19.43;94.74
47913;BME280;33676;51.006;17.180;2023-07-28T06:28:48;99139.72;;;19.55;94.93
47913;BME280;33676;51.006;17.180;2023-07-28T06:31:17;99137.60;;;19.64;94.86
47913;BME280;33676;51.006;17.180;2023-07-28T06:33:48;99138.00;;;19.73;94.97
47913;BME280;33676;51.006;17.180;2023-07-28T06:36:18;99138.70;;;19.80;95.14
47913;BME280;33676;51.006;17.180;2023-07-28T06:38:47;99133.01;;;19.88;95.06
47913;BME280;33676;51.006;17.180;2023-07-28T06:41:17;99134.40;;;19.86;94.83
47913;BME280;33676;51.006;17.180;2023-07-28T06:43:46;99141.27;;;19.82;94.56
47913;BME280;33676;51.006;17.180;2023-07-28T06:46:14;99149.88;;;19.82;94.77
47913;BME280;33676;51.006;17.180;2023-07-28T06:48:43;99153.23;;;19.82;94.86
47913;BME280;33676;51.006;17.180;2023-07-28T06:51:11;99150.94;;;19.82;95.00
47913;BME280;33676;51.006;17.180;2023-07-28T06:53:39;99150.29;;;19.80;95.80
47913;BME280;33676;51.006;17.180;2023-07-28T06:56:08;99146.43;;;19.85;96.41
47913;BME280;33676;51.006;17.180;2023-07-28T06:58:36;99142.16;;;20.00;97.14
47913;BME280;33676;51.006;17.180;2023-07-28T07:01:05;99141.41;;;20.09;97.15
47913;BME280;33676;51.006;17.180;2023-07-28T07:03:33;99135.66;;;20.16;96.61
47913;BME280;33676;51.006;17.180;2023-07-28T07:06:02;99139.08;;;20.22;96.09
47913;BME280;33676;51.006;17.180;2023-07-28T07:08:30;99142.56;;;20.29;95.94
47913;BME280;33676;51.006;17.180;2023-07-28T07:10:59;99138.61;;;20.33;95.71
47913;BME280;33676;51.006;17.180;2023-07-28T07:13:27;99141.56;;;20.38;95.78
47913;BME280;33676;51.006;17.180;2023-07-28T07:15:56;99144.33;;;20.39;95.58
47913;BME280;33676;51.006;17.180;2023-07-28T07:18:25;99149.48;;;20.38;95.45
47913;BME280;33676;51.006;17.180;2023-07-28T07:20:53;99153.64;;;20.35;95.28
47913;BME280;33676;51.006;17.180;2023-07-28T07:23:22;99154.80;;;20.33;95.28
47913;BME280;33676;51.006;17.180;2023-07-28T07:25:50;99159.50;;;20.34;95.38
47913;BME280;33676;51.006;17.180;2023-07-28T07:28:19;99155.48;;;20.35;95.35
47913;BME280;33676;51.006;17.180;2023-07-28T07:30:47;99154.47;;;20.43;95.59
47913;BME280;33676;51.006;17.180;2023-07-28T07:33:16;99161.85;;;20.52;95.72
47913;BME280;33676;51.006;17.180;2023-07-28T07:35:45;99168.26;;;20.60;95.87
47913;BME280;33676;51.006;17.180;2023-07-28T07:38:13;99169.63;;;20.67;95.87
47913;BME280;33676;51.006;17.180;2023-07-28T07:40:41;99171.27;;;20.77;95.93
47913;BME280;33676;51.006;17.180;2023-07-28T07:43:10;99176.14;;;20.88;96.12
47913;BME280;33676;51.006;17.180;2023-07-28T07:45:39;99183.55;;;20.92;96.72
47913;BME280;33676;51.006;17.180;2023-07-28T07:48:07;99182.54;;;20.97;97.04
47913;BME280;33676;51.006;17.180;2023-07-28T07:50:37;99183.23;;;21.04;97.22
47913;BME280;33676;51.006;17.180;2023-07-28T07:53:06;99185.60;;;21.14;97.25
47913;BME280;33676;51.006;17.180;2023-07-28T07:55:34;99190.26;;;21.19;96.65
47913;BME280;33676;51.006;17.180;2023-07-28T07:58:02;99187.80;;;21.25;96.18
47913;BME280;33676;51.006;17.180;2023-07-28T08:00:32;99186.55;;;21.31;95.84
47913;BME280;33676;51.006;17.180;2023-07-28T08:03:00;99184.73;;;21.36;95.61
47913;BME280;33676;51.006;17.180;2023-07-28T08:05:29;99182.36;;;21.41;95.57
47913;BME280;33676;51.006;17.180;2023-07-28T08:07:57;99183.42;;;21.47;95.60
47913;BME280;33676;51.006;17.180;2023-07-28T08:10:26;99184.20;;;21.55;95.50
47913;BME280;33676;51.006;17.180;2023-07-28T08:12:55;99179.85;;;21.60;95.26
47913;BME280;33676;51.006;17.180;2023-07-28T08:15:23;99182.36;;;21.64;95.01
47913;BME280;33676;51.006;17.180;2023-07-28T08:17:52;99185.75;;;21.66;95.01
47913;BME280;33676;51.006;17.180;2023-07-28T08:20:20;99186.91;;;21.66;94.84
47913;BME280;33676;51.006;17.180;2023-07-28T08:22:49;99183.50;;;21.66;94.64
47913;BME280;33676;51.006;17.180;2023-07-28T08:25:18;99183.81;;;21.72;94.61
47913;BME280;33676;51.006;17.180;2023-07-28T08:27:46;99184.99;;;21.79;94.54
47913;BME280;33676;51.006;17.180;2023-07-28T08:30:15;99178.20;;;21.82;94.54
47913;BME280;33676;51.006;17.180;2023-07-28T08:32:44;99181.15;;;21.88;94.37
47913;BME280;33676;51.006;17.180;2023-07-28T08:35:12;99182.02;;;21.93;94.28
47913;BME280;33676;51.006;17.180;2023-07-28T08:40:37;99187.36;;;21.97;94.53
47913;BME280;33676;51.006;17.180;2023-07-28T08:43:06;99185.88;;;21.93;94.62
47913;BME280;33676;51.006;17.180;2023-07-28T08:45:34;99187.24;;;21.92;94.39
47913;BME280;33676;51.006;17.180;2023-07-28T08:48:04;99188.46;;;21.88;94.40
47913;BME280;33676;51.006;17.180;2023-07-28T08:50:33;99198.84;;;21.82;94.30
47913;BME280;33676;51.006;17.180;2023-07-28T08:53:01;99203.27;;;21.73;94.03
47913;BME280;33676;51.006;17.180;2023-07-28T08:55:30;99207.71;;;21.67;93.85
47913;BME280;33676;51.006;17.180;2023-07-28T08:58:18;99209.17;;;21.63;93.75
47913;BME280;33676;51.006;17.180;2023-07-28T09:00:48;99205.41;;;21.62;93.73
47913;BME280;33676;51.006;17.180;2023-07-28T09:03:19;99205.45;;;21.61;93.61
47913;BME280;33676;51.006;17.180;2023-07-28T09:05:48;99206.98;;;21.61;93.58
47913;BME280;33676;51.006;17.180;2023-07-28T09:08:17;99208.44;;;21.58;93.43
47913;BME280;33676;51.006;17.180;2023-07-28T09:10:48;99203.03;;;21.55;93.40
47913;BME280;33676;51.006;17.180;2023-07-28T09:13:18;99199.61;;;21.57;93.54
47913;BME280;33676;51.006;17.180;2023-07-28T09:15:48;99202.45;;;21.67;93.76
47913;BME280;33676;51.006;17.180;2023-07-28T09:18:18;99200.87;;;21.80;93.95
47913;BME280;33676;51.006;17.180;2023-07-28T09:20:47;99207.39;;;21.94;94.10
47913;BME280;33676;51.006;17.180;2023-07-28T09:23:15;99206.48;;;22.16;94.42
47913;BME280;33676;51.006;17.180;2023-07-28T09:25:44;99203.27;;;22.38;94.46
47913;BME280;33676;51.006;17.180;2023-07-28T09:28:13;99203.39;;;22.58;94.48
47913;BME280;33676;51.006;17.180;2023-07-28T09:30:48;99205.37;;;22.72;94.13
47913;BME280;33676;51.006;17.180;2023-07-28T09:33:32;99199.06;;;22.78;94.13
47913;BME280;33676;51.006;17.180;2023-07-28T09:36:12;99196.46;;;22.79;93.75
47913;BME280;33676;51.006;17.180;2023-07-28T09:38:44;99201.63;;;22.75;93.19
47913;BME280;33676;51.006;17.180;2023-07-28T09:41:13;99198.70;;;22.75;92.88
47913;BME280;33676;51.006;17.180;2023-07-28T09:43:41;99200.33;;;22.78;92.85
47913;BME280;33676;51.006;17.180;2023-07-28T09:46:13;99200.45;;;22.94;93.64
47913;BME280;33676;51.006;17.180;2023-07-28T09:48:48;99199.42;;;23.21;94.18
47913;BME280;33676;51.006;17.180;2023-07-28T09:51:22;99207.66;;;23.45;94.06
47913;BME280;33676;51.006;17.180;2023-07-28T09:54:24;99205.30;;;23.58;93.84
47913;BME280;33676;51.006;17.180;2023-07-28T09:56:57;99198.44;;;23.94;94.40
47913;BME280;33676;51.006;17.180;2023-07-28T09:59:32;99193.38;;;24.27;94.32
47913;BME280;33676;51.006;17.180;2023-07-28T10:02:04;99183.58;;;24.57;95.02
47913;BME280;33676;51.006;17.180;2023-07-28T10:04:35;99172.80;;;24.82;95.18
47913;BME280;33676;51.006;17.180;2023-07-28T10:07:07;99183.31;;;24.92;94.06
47913;BME280;33676;51.006;17.180;2023-07-28T10:09:37;99187.41;;;24.91;92.75
47913;BME280;33676;51.006;17.180;2023-07-28T10:12:18;99195.86;;;24.87;91.67
47913;BME280;33676;51.006;17.180;2023-07-28T10:14:47;99196.50;;;24.79;90.32
47913;BME280;33676;51.006;17.180;2023-07-28T10:17:30;99192.73;;;24.67;89.66
47913;BME280;33676;51.006;17.180;2023-07-28T10:20:05;99189.02;;;24.59;89.25
47913;BME280;33676;51.006;17.180;2023-07-28T10:22:44;99189.50;;;24.49;89.21
47913;BME280;33676;51.006;17.180;2023-07-28T10:25:25;99191.26;;;24.46;89.88
47913;BME280;33676;51.006;17.180;2023-07-28T10:27:53;99198.23;;;24.54;90.45
47913;BME280;33676;51.006;17.180;2023-07-28T10:30:24;99194.58;;;24.72;90.68
47913;BME280;33676;51.006;17.180;2023-07-28T10:32:55;99190.45;;;25.07;91.36
47913;BME280;33676;51.006;17.180;2023-07-28T10:35:27;99192.85;;;25.29;90.60
47913;BME280;33676;51.006;17.180;2023-07-28T10:37:57;99190.64;;;25.38;89.77
47913;BME280;33676;51.006;17.180;2023-07-28T10:43:03;99209.84;;;25.28;88.04
47913;BME280;33676;51.006;17.180;2023-07-28T10:45:35;99201.28;;;25.48;88.49
47913;BME280;33676;51.006;17.180;2023-07-28T10:48:04;99199.04;;;25.67;88.42
47913;BME280;33676;51.006;17.180;2023-07-28T10:50:32;99201.81;;;25.72;87.76
47913;BME280;33676;51.006;17.180;2023-07-28T10:53:01;99199.50;;;25.68;86.86
47913;BME280;33676;51.006;17.180;2023-07-28T10:55:30;99198.81;;;25.69;86.60
47913;BME280;33676;51.006;17.180;2023-07-28T10:57:59;99204.88;;;25.82;86.37
47913;BME280;33676;51.006;17.180;2023-07-28T11:00:32;99201.30;;;26.13;86.92
47913;BME280;33676;51.006;17.180;2023-07-28T11:03:01;99195.23;;;26.60;88.17
47913;BME280;33676;51.006;17.180;2023-07-28T11:05:30;99199.79;;;26.85;87.43
47913;BME280;33676;51.006;17.180;2023-07-28T11:08:02;99195.23;;;26.86;86.03
47913;BME280;33676;51.006;17.180;2023-07-28T11:10:31;99192.66;;;26.88;85.55
47913;BME280;33676;51.006;17.180;2023-07-28T11:13:03;99190.58;;;27.04;85.14
47913;BME280;33676;51.006;17.180;2023-07-28T11:15:51;99194.27;;;27.33;84.85
47913;BME280;33676;51.006;17.180;2023-07-28T11:18:20;99188.94;;;27.62;84.77
47913;BME280;33676;51.006;17.180;2023-07-28T11:20:50;99188.69;;;27.84;84.17
47913;BME280;33676;51.006;17.180;2023-07-28T11:23:18;99187.21;;;27.95;82.59
47913;BME280;33676;51.006;17.180;2023-07-28T11:25:47;99181.58;;;28.17;82.73
47913;BME280;33676;51.006;17.180;2023-07-28T11:28:15;99174.96;;;28.26;82.46
47913;BME280;33676;51.006;17.180;2023-07-28T11:30:46;99178.31;;;28.15;80.92
47913;BME280;33676;51.006;17.180;2023-07-28T11:33:16;99178.55;;;27.85;78.83
47913;BME280;33676;51.006;17.180;2023-07-28T11:35:45;99177.33;;;27.53;78.28
47913;BME280;33676;51.006;17.180;2023-07-28T11:38:15;99178.42;;;27.21;77.67
47913;BME280;33676;51.006;17.180;2023-07-28T11:40:44;99177.20;;;26.96;77.62
47913;BME280;33676;51.006;17.180;2023-07-28T11:43:12;99180.70;;;26.82;77.64
47913;BME280;33676;51.006;17.180;2023-07-28T11:45:41;99175.09;;;26.94;78.19
47913;BME280;33676;51.006;17.180;2023-07-28T11:48:09;99171.77;;;27.22;78.93
47913;BME280;33676;51.006;17.180;2023-07-28T11:50:40;99169.38;;;27.48;78.48
47913;BME280;33676;51.006;17.180;2023-07-28T11:53:10;99167.88;;;27.93;79.03
47913;BME280;33676;51.006;17.180;2023-07-28T11:55:39;99175.98;;;28.53;78.83
47913;BME280;33676;51.006;17.180;2023-07-28T11:58:08;99173.73;;;28.72;77.15
47913;BME280;33676;51.006;17.180;2023-07-28T12:00:40;99169.48;;;28.54;75.71
47913;BME280;33676;51.006;17.180;2023-07-28T12:03:12;99176.61;;;28.32;75.40
47913;BME280;33676;51.006;17.180;2023-07-28T12:06:04;99180.43;;;28.17;74.89
47913;BME280;33676;51.006;17.180;2023-07-28T12:08:38;99179.75;;;27.86;73.58
47913;BME280;33676;51.006;17.180;2023-07-28T12:11:13;99180.73;;;27.60;73.21
47913;BME280;33676;51.006;17.180;2023-07-28T12:13:51;99168.96;;;27.62;74.21
47913;BME280;33676;51.006;17.180;2023-07-28T12:16:40;99168.08;;;27.96;74.98
47913;BME280;33676;51.006;17.180;2023-07-28T12:19:15;99169.74;;;28.54;74.12
47913;BME280;33676;51.006;17.180;2023-07-28T12:21:44;99166.70;;;28.96;72.91
47913;BME280;33676;51.006;17.180;2023-07-28T12:24:13;99165.75;;;29.35;72.68
47913;BME280;33676;51.006;17.180;2023-07-28T12:26:41;99156.99;;;29.79;73.13
47913;BME280;33676;51.006;17.180;2023-07-28T12:29:10;99159.75;;;30.33;72.30
47913;BME280;33676;51.006;17.180;2023-07-28T12:31:39;99166.04;;;30.81;71.56
47913;BME280;33676;51.006;17.180;2023-07-28T12:34:11;99173.83;;;31.05;70.42
47913;BME280;33676;51.006;17.180;2023-07-28T12:37:12;99164.73;;;31.22;69.05
47913;BME280;33676;51.006;17.180;2023-07-28T12:39:41;99170.30;;;31.31;68.55
47913;BME280;33676;51.006;17.180;2023-07-28T12:42:13;99169.02;;;31.36;67.20
47913;BME280;33676;51.006;17.180;2023-07-28T12:44:53;99171.69;;;31.55;66.90
47913;BME280;33676;51.006;17.180;2023-07-28T12:47:25;99174.26;;;31.37;65.72
47913;BME280;33676;51.006;17.180;2023-07-28T12:49:54;99177.35;;;31.03;65.16
47913;BME280;33676;51.006;17.180;2023-07-28T12:52:23;99184.16;;;30.61;64.40
47913;BME280;33676;51.006;17.180;2023-07-28T12:55:14;99186.09;;;30.34;64.28
47913;BME280;33676;51.006;17.180;2023-07-28T12:57:44;99181.35;;;30.24;64.89
47913;BME280;33676;51.006;17.180;2023-07-28T13:00:13;99180.60;;;30.20;64.82
47913;BME280;33676;51.006;17.180;2023-07-28T13:02:45;99176.71;;;30.36;65.45
47913;BME280;33676;51.006;17.180;2023-07-28T13:05:15;99181.59;;;30.69;65.10
47913;BME280;33676;51.006;17.180;2023-07-28T13:07:45;99180.13;;;30.70;64.50
47913;BME280;33676;51.006;17.180;2023-07-28T13:10:19;99183.86;;;30.37;63.85
47913;BME280;33676;51.006;17.180;2023-07-28T13:12:51;99181.70;;;30.17;63.91
47913;BME280;33676;51.006;17.180;2023-07-28T13:15:24;99176.95;;;30.36;64.72
47913;BME280;33676;51.006;17.180;2023-07-28T13:17:52;99177.28;;;30.64;64.50
47913;BME280;33676;51.006;17.180;2023-07-28T13:20:21;99178.65;;;30.71;63.87
47913;BME280;33676;51.006;17.180;2023-07-28T13:22:49;99178.34;;;30.90;63.50